Ride Results

CCER - Takone (04-08-2018)
Ride distance: 80.0 km

Outcomes - CCER - Takone (04-08-2018)
Division No. of Entries Retired / DNE Completed Withdrawn Ineligible V/O Percentage Completed
HW 5 - 3 1 - 1 60.00%
MW 14 - 11 2 - 1 78.57%
LW 6 - 4 - - 2 66.67%
JN 6 - 6 - - - 100.00%
Totals 31 - 24 3 - 4 77.42%
Results - CCER - Takone (04-08-2018)
No. Rider Horse Place Time Leg Speeds Total
Km/Hr
H/R bpm
Heavyweight
166 Craig Wilson Rebel Impact 1 (BC) 6:02:00 14.1, 12.4 13.26 33, 41, 42 (Avg:41)
82 Mark Dunn Calypso 2 8:06:00 10.8, 9.0 9.88 29, 53, 48 (Avg:50)
G Greg Henry Bellawongarah Stirling Silver 2 8:06:00 12.0, 8.3 9.88 35, 49, 56 (Avg:52)
194 Robby Walsh Sno- Flake Heart Rate L2 0:00:00 12.2, 9.9 - 35, 46, 64 (Avg:55)
38 Tony Purton Beer Street Bewitched Withdrawn L1 0:00:00 - - 35, 45 (Avg:45)
Middleweight
132 Carolyn Foley-Jones Vandieman Princess Ellie 1 4:43:00 16.3, 17.6 16.96 30, 41, 48 (Avg:44)
57 Tania Jago Dat Murphy 2 (BC) 4:50:01 16.2, 16.8 16.55 37, 46, 49 (Avg:47)
88 Anthony Bloom Booma 3 5:05:00 16.2, 15.2 15.74 30, 42, 55 (Avg:48)
125 Brooke Brown-Cordell Deeka Park Bambino 4 5:30:00 14.0, 15.0 14.55 35, 45, 52 (Avg:48)
80 Noel Lockhart Lockleigh Park Turbulence 5 5:35:00 14.4, 14.2 14.33 28, 35, 42 (Avg:38)
68 Janine Parr Janarr Shimmering Surprise 6 5:36:00 14.9, 13.7 14.29 28, 45, 38 (Avg:41)
156 Ian Davidson Vandieman Tyrant 7 6:02:00 13.2, 13.2 13.26 32, 40, 46 (Avg:43)
154 Sarah Parker Arabec Prince of Thieves 8 6:38:00 12.1, 11.9 12.06 42, 48, 52 (Avg:50)
189 Leonie Stewart Kalody Park Dynasty 9 7:16:00 12.2, 9.9 11.01 35, 42, 47 (Avg:44)
247 Linda Pilgrim Saffa 10 7:50:00 10.3, 10.0 10.21 36, 47, 55 (Avg:51)
262 Andrew Miles Beau 11 7:58:00 10.8, 9.3 10.04 43, 41, 43 (Avg:42)
136 Kaye Mitchell Beer Street Tarkine Lame L2 0:00:00 16.4, 13.2 - 29, 44, 53 (Avg:48)
48 Alison Colbeck Malricia Narah Withdrawn L1 0:00:00 - - 32, 46 (Avg:46)
165 Danielle Taylor Vandieman Geronimo Withdrawn L1 0:00:00 - - 38, 44 (Avg:44)
Lightweight
42 Dianne Walsh Razorback Silver Wings 1 (BC) 4:50:00 16.3, 16.7 16.55 33, 46, 52 (Avg:49)
157 Lynette Walker Merembe Billabong 2 5:30:02 13.7, 15.3 14.54 35, 44, 53 (Avg:48)
23 Tracey Nutting Melody 3 7:13:00 12.4, 9.9 11.09 38, 46, 56 (Avg:51)
228 Melissa Kelly Harmony 4 7:13:01 12.4, 9.9 11.09 35, 42, 46 (Avg:44)
292 Holli Anthony OToole Foley-Jones Gypsy Rose Lame L2 0:00:00 16.4, 16.7 - 30, 44, 56 (Avg:50)
297 Brittany Farrell Santashka Imag Lame L1 0:00:00 12.5 - 35, 52 (Avg:52)
Junior
127 Jaz Hutchins BBP Pocahontus 1 (BC) 5:21:00 13.2, 17.1 14.95 38, 48, 53 (Avg:50)
66 Bella Pickering Vandieman Trojen 2 5:30:01 14.0, 15.0 14.54 33, 50, 50 (Avg:50)
113 Kirstie Lockhart Santashka Jewel of Alii 3 5:35:00 14.4, 14.2 14.33 38, 48, 50 (Avg:49)
289 Chelsea Cannon Vandieman Phenix 4 7:24:00 10.5, 11.0 10.81 31, 50, 45 (Avg:47)
263 Ali Smith Tamlyn PL Yogi 5 7:50:00 10.3, 10.0 10.21 37, 49, 58 (Avg:53)
306 Jessica Goulding Rainbow of Colours 6 7:58:00 10.8, 9.3 10.04 36, 38, 44 (Avg:41)